createdAt,value
2019-01-05T00:02:40.468Z,5.50
2019-01-05T00:06:04.461Z,5.60
2019-01-05T00:09:26.267Z,5.70
2019-01-05T00:12:52.355Z,5.43
2019-01-05T00:16:15.820Z,5.70
2019-01-05T00:19:41.312Z,5.43
2019-01-05T00:23:11.038Z,4.60
2019-01-05T00:26:43.461Z,4.50
2019-01-05T00:30:15.841Z,4.00
2019-01-05T00:33:48.826Z,3.87
2019-01-05T00:37:18.692Z,3.37
2019-01-05T00:40:53.406Z,3.60
2019-01-05T00:44:27.860Z,3.30
2019-01-05T00:47:51.026Z,3.50
2019-01-05T00:51:27.812Z,3.57
2019-01-05T00:54:58.356Z,3.40
2019-01-05T00:58:22.355Z,2.90
2019-01-05T01:01:58.988Z,2.87
2019-01-05T01:05:34.450Z,2.80
2019-01-05T01:08:57.658Z,2.83
2019-01-05T01:12:38.986Z,2.80
2019-01-05T01:16:05.074Z,2.80
2019-01-05T01:19:37.493Z,3.47
2019-01-05T01:23:11.274Z,3.50
2019-01-05T01:26:33.101Z,3.37
2019-01-05T01:29:59.525Z,3.77
2019-01-05T01:33:41.786Z,3.57
2019-01-05T01:37:05.166Z,3.13
2019-01-05T01:40:26.962Z,3.30
2019-01-05T01:44:02.043Z,3.30
2019-01-05T01:47:26.431Z,2.90
2019-01-05T01:50:49.345Z,3.03
2019-01-05T01:54:12.617Z,2.67
2019-01-05T01:57:37.915Z,2.90
2019-01-05T02:01:04.202Z,3.33
2019-01-05T02:04:41.947Z,3.20
2019-01-05T02:08:18.234Z,2.90
2019-01-05T02:11:55.819Z,3.00
2019-01-05T02:15:34.321Z,2.80
2019-01-05T02:19:28.581Z,2.83
2019-01-05T02:23:39.142Z,2.37
2019-01-05T02:27:33.776Z,2.53
2019-01-05T02:31:46.596Z,2.53
2019-01-05T02:35:40.836Z,2.20
2019-01-05T02:39:30.144Z,2.43
2019-01-05T02:43:40.105Z,2.80
2019-01-05T02:48:20.591Z,2.20
2019-01-05T02:52:38.226Z,1.87
2019-01-05T02:57:11.920Z,2.20
2019-01-05T03:01:42.722Z,2.00
2019-01-05T03:06:16.595Z,1.90
2019-01-05T03:10:25.291Z,1.87
2019-01-05T03:14:43.108Z,2.10
2019-01-05T03:18:49.220Z,2.10
2019-01-05T03:22:43.991Z,1.83
2019-01-05T03:26:47.989Z,2.37
2019-01-05T03:30:45.573Z,2.37
2019-01-05T03:35:06.699Z,2.53
2019-01-05T03:39:13.720Z,2.30
2019-01-05T03:42:58.668Z,2.53
2019-01-05T03:47:01.332Z,2.73
2019-01-05T03:51:31.551Z,2.77
2019-01-05T03:55:28.689Z,2.93
2019-01-05T03:59:39.647Z,2.63
2019-01-05T04:03:46.881Z,2.60
2019-01-05T04:07:47.331Z,2.70
2019-01-05T04:12:23.645Z,2.43
2019-01-05T04:16:20.561Z,2.70
2019-01-05T04:20:19.000Z,2.50
2019-01-05T04:24:17.591Z,2.40
2019-01-05T04:28:20.460Z,2.37
2019-01-05T04:32:17.386Z,2.53
2019-01-05T04:36:45.329Z,2.50
2019-01-05T04:40:34.611Z,2.53
2019-01-05T04:44:46.556Z,2.80
2019-01-05T04:48:43.819Z,2.40
2019-01-05T04:52:55.674Z,2.23
2019-01-05T04:57:05.586Z,2.27
2019-01-05T05:01:24.594Z,1.97
2019-01-05T05:05:48.109Z,2.17
2019-01-05T05:09:52.546Z,1.87
2019-01-05T05:13:56.101Z,1.90
2019-01-05T05:17:54.596Z,1.90
2019-01-05T05:21:47.782Z,2.07
2019-01-05T05:25:45.284Z,2.00
2019-01-05T05:29:46.531Z,2.30
2019-01-05T05:33:42.557Z,2.27
2019-01-05T05:37:48.142Z,2.30
2019-01-05T05:42:04.451Z,2.40
2019-01-05T05:45:59.634Z,2.30
2019-01-05T05:50:20.510Z,2.60
2019-01-05T05:54:25.055Z,2.40
2019-01-05T05:58:18.366Z,2.17
2019-01-05T06:02:21.464Z,2.67
2019-01-05T06:06:15.510Z,2.30
2019-01-05T06:10:26.719Z,2.47
2019-01-05T06:14:44.075Z,2.50
2019-01-05T06:18:47.144Z,3.10
2019-01-05T06:22:47.099Z,3.10
2019-01-05T06:26:57.322Z,3.30
2019-01-05T06:30:43.550Z,2.90
2019-01-05T06:34:47.324Z,3.03
2019-01-05T06:39:04.923Z,3.40
2019-01-05T06:43:12.831Z,3.87
2019-01-05T06:47:40.820Z,3.80
2019-01-05T06:51:54.333Z,3.00
2019-01-05T06:56:14.113Z,3.20
2019-01-05T07:00:21.621Z,3.50
2019-01-05T07:04:27.458Z,3.00
2019-01-05T07:08:43.818Z,2.50
2019-01-05T07:12:43.338Z,2.83
2019-01-05T07:17:02.823Z,2.87
2019-01-05T07:21:27.717Z,2.40
2019-01-05T07:25:45.069Z,2.40
2019-01-05T07:29:43.510Z,2.63
2019-01-05T07:33:45.859Z,2.80
2019-01-05T07:37:48.135Z,2.83
2019-01-05T07:41:55.539Z,2.60
2019-01-05T07:45:55.523Z,2.50
2019-01-05T07:50:14.879Z,2.60
2019-01-05T07:54:28.551Z,2.67
2019-01-05T07:58:38.565Z,3.00
2019-01-05T08:02:44.079Z,2.90
2019-01-05T08:06:55.564Z,2.50
2019-01-05T08:11:01.188Z,3.23
2019-01-05T08:15:31.990Z,2.80
2019-01-05T08:19:50.949Z,2.43
2019-01-05T08:23:47.168Z,2.57
2019-01-05T08:27:52.919Z,3.27
2019-01-05T08:32:10.718Z,2.80
2019-01-05T08:36:32.453Z,2.90
2019-01-05T08:40:44.235Z,3.13
2019-01-05T08:44:45.010Z,3.33
2019-01-05T08:48:45.891Z,3.73
2019-01-05T08:52:48.895Z,3.37
2019-01-05T08:56:47.139Z,3.47
2019-01-05T09:00:53.828Z,3.47
2019-01-05T09:05:20.288Z,2.90
2019-01-05T09:09:23.630Z,3.07
2019-01-05T09:13:32.026Z,3.30
2019-01-05T09:17:32.044Z,3.10
2019-01-05T09:21:31.139Z,3.87
2019-01-05T09:25:36.433Z,3.30
2019-01-05T09:29:31.328Z,3.07
2019-01-05T09:33:28.700Z,3.10
2019-01-05T09:37:43.964Z,3.70
2019-01-05T09:41:58.970Z,3.27
2019-01-05T09:46:04.505Z,3.03
2019-01-05T09:50:10.734Z,3.30
2019-01-05T09:54:21.014Z,2.93
2019-01-05T09:58:52.678Z,3.03
2019-01-05T10:03:14.808Z,3.20
2019-01-05T10:07:33.193Z,2.90
2019-01-05T10:11:38.133Z,3.10
2019-01-05T10:16:12.588Z,2.63
2019-01-05T10:20:23.094Z,4.00
2019-01-05T10:24:46.757Z,2.97
2019-01-05T10:29:16.587Z,2.90
2019-01-05T10:34:03.531Z,2.77
2019-01-05T10:37:47.033Z,2.97
2019-01-05T10:41:58.644Z,3.03
2019-01-05T10:46:32.779Z,2.70
2019-01-05T10:50:30.937Z,2.77
2019-01-05T10:54:38.699Z,2.77
2019-01-05T10:58:56.315Z,3.40
2019-01-05T11:03:14.940Z,3.80
2019-01-05T11:07:09.489Z,3.40
2019-01-05T11:11:28.407Z,3.60
2019-01-05T11:15:33.429Z,2.87
2019-01-05T11:19:36.304Z,3.20
2019-01-05T11:23:42.347Z,3.20
2019-01-05T11:28:01.228Z,3.13
2019-01-05T11:32:14.947Z,3.23
2019-01-05T11:36:13.492Z,2.90
2019-01-05T11:40:35.625Z,3.00
2019-01-05T11:44:35.725Z,3.03
2019-01-05T11:48:34.283Z,3.10
2019-01-05T11:52:34.818Z,2.90
2019-01-05T11:56:57.187Z,3.20
2019-01-05T12:01:11.608Z,2.93
2019-01-05T12:05:29.354Z,2.90
2019-01-05T12:09:24.588Z,2.70
2019-01-05T12:13:36.198Z,2.70
2019-01-05T12:17:57.998Z,3.30
2019-01-05T12:22:02.459Z,2.80
2019-01-05T12:26:30.652Z,3.00
2019-01-05T12:30:36.837Z,3.27
2019-01-05T12:35:09.813Z,2.80
2019-01-05T12:39:21.310Z,2.70
2019-01-05T12:43:31.892Z,3.50
2019-01-05T12:47:34.688Z,3.00
2019-01-05T12:51:24.494Z,3.17
2019-01-05T12:55:36.361Z,2.67
2019-01-05T12:59:34.993Z,2.80
2019-01-05T13:03:34.766Z,2.53
2019-01-05T13:07:56.412Z,2.80
2019-01-05T13:12:13.907Z,2.60
2019-01-05T13:16:30.337Z,2.80
2019-01-05T13:20:05.254Z,2.77
2019-01-05T13:24:23.069Z,2.67
2019-01-05T13:28:32.857Z,2.80
2019-01-05T13:32:53.473Z,2.67
2019-01-05T13:37:02.490Z,2.80
2019-01-05T13:40:57.179Z,2.50
2019-01-05T13:44:51.633Z,2.50
2019-01-05T13:48:57.958Z,2.37
2019-01-05T13:52:50.563Z,3.03
2019-01-05T13:56:30.691Z,2.70
2019-01-05T13:59:50.398Z,3.23
2019-01-05T14:03:19.639Z,2.70
2019-01-05T14:06:41.349Z,2.60
2019-01-05T14:10:02.274Z,2.50
2019-01-05T14:13:28.473Z,2.70
2019-01-05T14:17:00.628Z,2.77
2019-01-05T14:20:22.413Z,3.03
2019-01-05T14:23:44.002Z,3.93
2019-01-05T14:27:03.323Z,2.90
2019-01-05T14:30:43.722Z,3.77
2019-01-05T14:34:24.892Z,14.97
2019-01-05T14:37:51.246Z,3.20
2019-01-05T14:41:22.692Z,4.07
2019-01-05T14:44:43.131Z,4.10
2019-01-05T14:48:05.000Z,3.70
2019-01-05T14:51:40.137Z,4.40
2019-01-05T14:55:01.996Z,4.40
2019-01-05T14:58:29.541Z,3.90
2019-01-05T15:01:51.223Z,3.40
2019-01-05T15:05:12.967Z,3.40
2019-01-05T15:08:34.556Z,3.50
2019-01-05T15:11:57.824Z,4.23
2019-01-05T15:15:19.087Z,4.17
2019-01-05T15:18:42.256Z,4.20
2019-01-05T15:22:14.791Z,3.87
2019-01-05T15:25:36.514Z,3.60
2019-01-05T15:29:08.663Z,4.80
2019-01-05T15:32:30.561Z,3.70
2019-01-05T15:35:52.522Z,4.40
2019-01-05T15:39:14.148Z,3.60
2019-01-05T15:42:40.170Z,4.10
2019-01-05T15:46:02.168Z,4.10
2019-01-05T15:49:23.827Z,4.40
2019-01-05T15:52:55.835Z,4.40
2019-01-05T15:56:17.433Z,4.20
2019-01-05T15:59:52.579Z,4.10
2019-01-05T16:03:24.847Z,5.50
2019-01-05T16:07:02.988Z,4.43
2019-01-05T16:10:36.372Z,5.70
2019-01-05T16:13:59.626Z,4.97
2019-01-05T16:17:29.234Z,4.80
2019-01-05T16:20:58.530Z,5.10
2019-01-05T16:24:29.233Z,6.50
2019-01-05T16:27:51.008Z,4.80
2019-01-05T16:31:17.854Z,4.90
2019-01-05T16:34:39.504Z,4.70
2019-01-05T16:38:01.103Z,5.10
2019-01-05T16:41:31.512Z,5.60
2019-01-05T16:45:03.697Z,5.30
2019-01-05T16:48:36.168Z,5.10
2019-01-05T16:52:18.351Z,5.50
2019-01-05T16:55:46.403Z,5.33
2019-01-05T16:59:05.372Z,4.90
2019-01-05T17:02:26.978Z,4.90
2019-01-05T17:05:48.818Z,4.97
2019-01-05T17:09:10.719Z,5.53
2019-01-05T17:12:30.269Z,5.40
2019-01-05T17:15:59.236Z,5.37
2019-01-05T17:19:37.605Z,5.43
2019-01-05T17:22:59.213Z,5.70
2019-01-05T17:26:20.993Z,6.00
2019-01-05T17:29:42.596Z,5.50
2019-01-05T17:33:08.932Z,5.30
2019-01-05T17:36:30.594Z,5.33
2019-01-05T17:39:49.236Z,4.87
2019-01-05T17:43:10.997Z,5.97
2019-01-05T17:46:43.049Z,7.17
2019-01-05T17:50:08.970Z,5.43
2019-01-05T17:53:41.139Z,6.40
2019-01-05T17:57:02.857Z,5.77
2019-01-05T18:00:24.320Z,6.57
2019-01-05T18:03:50.641Z,5.70
2019-01-05T18:07:12.618Z,5.30
2019-01-05T18:10:44.603Z,5.80
2019-01-05T18:14:17.063Z,6.53
2019-01-05T18:17:43.287Z,6.90
2019-01-05T18:21:04.815Z,8.00
2019-01-05T18:24:32.727Z,6.87
2019-01-05T18:27:54.472Z,7.93
2019-01-05T18:31:16.221Z,7.27
2019-01-05T18:34:49.477Z,7.67
2019-01-05T18:38:19.301Z,6.33
2019-01-05T18:41:48.400Z,7.10
2019-01-05T18:45:14.782Z,6.33
2019-01-05T18:48:38.134Z,6.60
2019-01-05T18:52:11.007Z,7.50
2019-01-05T18:55:43.169Z,7.00
2019-01-05T18:59:02.852Z,7.57
2019-01-05T19:02:24.823Z,8.97
2019-01-05T19:05:54.194Z,9.20
2019-01-05T19:09:16.239Z,7.43
2019-01-05T19:12:39.552Z,7.10
2019-01-05T19:16:00.327Z,7.90
2019-01-05T19:19:31.871Z,8.20
2019-01-05T19:22:57.485Z,7.70
2019-01-05T19:26:19.427Z,7.33
2019-01-05T19:29:41.237Z,6.60
2019-01-05T19:33:14.511Z,7.00
2019-01-05T19:36:38.391Z,6.47
2019-01-05T19:40:17.717Z,6.13
2019-01-05T19:43:38.921Z,5.83
2019-01-05T19:47:20.130Z,5.90
2019-01-05T19:50:49.201Z,5.90
2019-01-05T19:54:11.133Z,5.77
2019-01-05T19:57:52.619Z,5.73
2019-01-05T20:01:28.006Z,5.27
2019-01-05T20:04:54.369Z,5.83
2019-01-05T20:08:29.707Z,6.10
2019-01-05T20:12:04.870Z,7.03
2019-01-05T20:15:26.928Z,6.80
2019-01-05T20:18:53.512Z,7.07
2019-01-05T20:22:30.686Z,7.07
2019-01-05T20:26:12.288Z,6.77
2019-01-05T20:29:38.506Z,6.40
2019-01-05T20:33:13.583Z,7.33
2019-01-05T20:36:35.210Z,7.63
2019-01-05T20:40:07.495Z,7.10
2019-01-05T20:43:24.897Z,7.97
2019-01-05T20:47:06.343Z,8.80
2019-01-05T20:50:28.024Z,7.30
2019-01-05T20:53:51.267Z,7.40
2019-01-05T20:57:13.168Z,6.07
2019-01-05T21:00:35.085Z,7.17
2019-01-05T21:04:16.136Z,6.77
2019-01-05T21:07:37.766Z,5.87
2019-01-05T21:11:00.959Z,5.23
2019-01-05T21:14:27.071Z,6.50
2019-01-05T21:17:48.942Z,7.33
2019-01-05T21:21:10.722Z,6.40
2019-01-05T21:24:39.994Z,6.47
2019-01-05T21:28:03.240Z,7.27
2019-01-05T21:31:24.790Z,7.00
2019-01-05T21:34:54.155Z,7.57
2019-01-05T21:38:15.829Z,7.40
2019-01-05T21:41:39.044Z,6.77
2019-01-05T21:44:59.167Z,5.70
2019-01-05T21:48:31.511Z,5.40
2019-01-05T21:51:53.026Z,5.77
2019-01-05T21:55:22.073Z,5.50
2019-01-05T21:58:47.696Z,5.27
2019-01-05T22:02:09.424Z,4.70
2019-01-05T22:05:47.826Z,4.37
2019-01-05T22:09:17.909Z,4.67
2019-01-05T22:12:47.101Z,4.43
2019-01-05T22:16:28.415Z,4.80
2019-01-05T22:19:57.487Z,4.30
2019-01-05T22:23:20.657Z,4.30
2019-01-05T22:26:42.562Z,5.00
2019-01-05T22:30:09.106Z,4.07
2019-01-05T22:33:35.431Z,3.87
2019-01-05T22:36:56.039Z,3.70
2019-01-05T22:40:18.272Z,3.33
2019-01-05T22:43:43.056Z,3.63
2019-01-05T22:47:24.568Z,4.00
2019-01-05T22:50:59.688Z,4.50
2019-01-05T22:54:16.381Z,3.70
2019-01-05T22:57:47.316Z,4.23
2019-01-05T23:01:10.566Z,4.57
2019-01-05T23:04:37.307Z,4.83
2019-01-05T23:08:12.415Z,4.50
2019-01-05T23:11:46.924Z,4.53
2019-01-05T23:15:19.316Z,3.90
2019-01-05T23:18:54.447Z,4.33
2019-01-05T23:22:17.144Z,4.50
2019-01-05T23:25:37.064Z,4.73
2019-01-05T23:29:15.001Z,4.90
2019-01-05T23:35:51.210Z,4.10
2019-01-05T23:39:12.794Z,4.50
2019-01-05T23:42:36.035Z,3.73
2019-01-05T23:46:14.263Z,3.90
2019-01-05T23:49:47.934Z,3.70
2019-01-05T23:53:15.008Z,3.43
2019-01-05T23:56:40.989Z,3.87
